createdAt,value
2022-10-18T00:01:17.376Z,1.75
2022-10-18T00:03:45.114Z,2.15
2022-10-18T00:06:13.097Z,1.75
2022-10-18T00:08:41.110Z,2.33
2022-10-18T00:11:08.979Z,2.03
2022-10-18T00:13:37.658Z,1.70
2022-10-18T00:16:12.607Z,1.60
2022-10-18T00:18:40.826Z,1.48
2022-10-18T00:21:13.926Z,1.30
2022-10-18T00:23:41.766Z,1.17
2022-10-18T00:26:12.356Z,1.48
2022-10-18T00:28:42.236Z,2.40
2022-10-18T00:31:13.358Z,1.77
2022-10-18T00:33:41.926Z,1.70
2022-10-18T00:36:11.172Z,1.88
2022-10-18T00:38:39.536Z,1.75
2022-10-18T00:41:12.091Z,1.98
2022-10-18T00:43:58.285Z,1.75
2022-10-18T00:46:30.708Z,1.83
2022-10-18T00:49:00.965Z,1.50
2022-10-18T00:51:37.650Z,2.35
2022-10-18T00:54:06.015Z,1.85
2022-10-18T00:56:35.483Z,1.60
2022-10-18T00:59:03.903Z,1.55
2022-10-18T01:01:33.211Z,1.65
2022-10-18T01:04:01.186Z,1.90
2022-10-18T01:06:30.039Z,1.63
2022-10-18T01:09:11.099Z,1.50
2022-10-18T01:11:56.984Z,2.35
2022-10-18T01:14:35.928Z,1.38
2022-10-18T01:17:22.630Z,1.42
2022-10-18T01:20:17.153Z,2.13
2022-10-18T01:22:48.995Z,1.88
2022-10-18T01:25:38.016Z,1.75
2022-10-18T01:28:21.233Z,1.23
2022-10-18T01:30:55.844Z,1.60
2022-10-18T01:33:37.127Z,1.40
2022-10-18T01:36:11.118Z,1.35
2022-10-18T01:38:40.614Z,1.75
2022-10-18T01:41:14.860Z,1.52
2022-10-18T01:43:46.436Z,1.30
2022-10-18T01:46:20.829Z,1.58
2022-10-18T01:48:51.790Z,1.42
2022-10-18T01:51:20.676Z,1.42
2022-10-18T01:53:48.546Z,1.08
2022-10-18T01:56:23.737Z,1.13
2022-10-18T01:59:04.624Z,1.02
2022-10-18T02:01:44.390Z,1.38
2022-10-18T02:04:21.600Z,1.10
2022-10-18T02:06:56.062Z,1.13
2022-10-18T02:09:34.679Z,1.38
2022-10-18T02:12:07.357Z,2.47
2022-10-18T02:14:36.070Z,2.33
2022-10-18T02:17:09.051Z,1.95
2022-10-18T02:19:41.446Z,1.70
2022-10-18T02:22:13.218Z,1.52
2022-10-18T02:24:45.708Z,1.73
2022-10-18T02:27:13.894Z,1.42
2022-10-18T02:29:43.107Z,1.65
2022-10-18T02:32:18.580Z,1.80
2022-10-18T02:34:50.845Z,1.58
2022-10-18T02:37:21.129Z,1.30
2022-10-18T02:39:51.248Z,1.13
2022-10-18T02:42:19.477Z,0.90
2022-10-18T02:44:47.240Z,1.17
2022-10-18T02:47:16.692Z,0.80
2022-10-18T02:49:44.441Z,1.45
2022-10-18T02:52:12.275Z,1.55
2022-10-18T02:54:40.059Z,1.92
2022-10-18T02:57:08.475Z,2.25
2022-10-18T02:59:36.275Z,1.98
2022-10-18T03:04:47.331Z,1.77
2022-10-18T03:07:17.880Z,1.52
2022-10-18T03:09:45.866Z,1.33
2022-10-18T03:12:13.953Z,1.40
2022-10-18T03:14:53.595Z,1.55
2022-10-18T03:17:24.480Z,1.40
2022-10-18T03:19:53.559Z,1.55
2022-10-18T03:22:21.403Z,1.60
2022-10-18T03:24:49.255Z,1.80
2022-10-18T03:27:19.399Z,1.80
2022-10-18T03:29:54.764Z,1.95
2022-10-18T03:32:50.008Z,1.50
2022-10-18T03:35:19.430Z,1.95
2022-10-18T03:37:47.482Z,1.90
2022-10-18T03:40:15.465Z,1.70
2022-10-18T03:42:48.694Z,1.85
2022-10-18T03:45:19.473Z,1.80
2022-10-18T03:47:47.338Z,2.50
2022-10-18T03:50:15.290Z,4.18
2022-10-18T03:52:59.272Z,2.45
2022-10-18T03:55:36.042Z,2.15
2022-10-18T03:58:06.075Z,2.35
2022-10-18T04:00:40.344Z,2.00
2022-10-18T04:03:10.077Z,2.58
2022-10-18T04:05:44.005Z,2.03
2022-10-18T04:08:13.523Z,1.90
2022-10-18T04:10:44.366Z,2.78
2022-10-18T04:13:16.097Z,2.58
2022-10-18T04:15:50.021Z,2.67
2022-10-18T04:18:17.821Z,2.60
2022-10-18T04:20:48.103Z,2.90
2022-10-18T04:23:20.104Z,2.45
2022-10-18T04:25:48.567Z,2.63
2022-10-18T04:28:16.553Z,2.08
2022-10-18T04:30:44.449Z,1.75
2022-10-18T04:33:12.371Z,1.83
2022-10-18T04:35:54.357Z,1.80
2022-10-18T04:38:23.536Z,2.25
2022-10-18T04:40:51.480Z,2.63
2022-10-18T04:43:19.610Z,2.00
2022-10-18T04:45:48.110Z,2.30
2022-10-18T04:48:19.415Z,1.85
2022-10-18T04:50:52.146Z,2.08
2022-10-18T04:53:20.616Z,2.35
2022-10-18T04:55:51.176Z,2.05
2022-10-18T04:58:19.859Z,2.03
2022-10-18T05:00:49.061Z,1.90
2022-10-18T05:03:17.690Z,2.05
2022-10-18T05:06:01.948Z,2.13
2022-10-18T05:08:39.876Z,2.17
2022-10-18T05:11:15.405Z,2.17
2022-10-18T05:13:45.946Z,2.17
2022-10-18T05:16:15.961Z,2.20
2022-10-18T05:18:44.148Z,2.35
2022-10-18T05:21:12.746Z,2.35
2022-10-18T05:23:43.718Z,2.63
2022-10-18T05:26:13.769Z,2.08
2022-10-18T05:28:57.038Z,2.08
2022-10-18T05:31:27.034Z,2.13
2022-10-18T05:33:58.150Z,2.33
2022-10-18T05:36:26.159Z,2.10
2022-10-18T05:39:02.616Z,1.95
2022-10-18T05:41:35.598Z,1.80
2022-10-18T05:44:08.496Z,2.17
2022-10-18T05:46:37.288Z,4.05
2022-10-18T05:49:05.246Z,2.70
2022-10-18T05:51:35.581Z,3.00
2022-10-18T05:54:06.197Z,2.92
2022-10-18T05:56:34.262Z,2.80
2022-10-18T05:59:12.296Z,2.88
2022-10-18T06:01:43.947Z,2.47
2022-10-18T06:04:15.059Z,2.92
2022-10-18T06:06:42.901Z,3.08
2022-10-18T06:09:10.819Z,3.50
2022-10-18T06:11:45.935Z,2.75
2022-10-18T06:14:15.153Z,3.03
2022-10-18T06:19:25.181Z,3.08
2022-10-18T06:21:53.104Z,3.17
2022-10-18T06:24:21.680Z,3.80
2022-10-18T06:26:50.049Z,3.15
2022-10-18T06:29:21.792Z,3.35
2022-10-18T06:31:49.691Z,3.03
2022-10-18T06:34:18.080Z,3.03
2022-10-18T06:36:52.879Z,3.00
2022-10-18T06:39:23.088Z,3.28
2022-10-18T06:41:50.844Z,4.43
2022-10-18T06:44:27.564Z,3.63
2022-10-18T06:46:55.318Z,2.47
2022-10-18T06:49:23.335Z,2.65
2022-10-18T06:51:51.355Z,3.15
2022-10-18T06:54:19.472Z,2.85
2022-10-18T06:56:47.638Z,2.65
2022-10-18T06:59:16.093Z,2.45
2022-10-18T07:01:45.655Z,2.72
2022-10-18T07:04:13.638Z,2.85
2022-10-18T07:06:41.742Z,2.60
2022-10-18T07:09:09.601Z,2.88
2022-10-18T07:11:43.011Z,2.63
2022-10-18T07:14:14.038Z,3.00
2022-10-18T07:17:00.242Z,2.08
2022-10-18T07:19:28.411Z,2.85
2022-10-18T07:21:56.211Z,2.83
2022-10-18T07:24:26.490Z,4.50
2022-10-18T07:26:54.782Z,2.88
2022-10-18T07:29:22.661Z,2.85
2022-10-18T07:31:53.561Z,3.17
2022-10-18T07:34:23.208Z,2.45
2022-10-18T07:36:50.979Z,2.58
2022-10-18T07:39:18.803Z,2.85
2022-10-18T07:41:46.565Z,2.35
2022-10-18T07:44:15.386Z,3.05
2022-10-18T07:46:43.191Z,2.70
2022-10-18T07:49:13.809Z,2.97
2022-10-18T07:51:49.633Z,2.35
2022-10-18T07:54:19.867Z,2.28
2022-10-18T07:56:47.892Z,3.72
2022-10-18T07:59:17.363Z,4.22
2022-10-18T08:01:54.393Z,3.20
2022-10-18T08:04:24.782Z,3.30
2022-10-18T08:06:54.107Z,2.72
2022-10-18T08:09:22.396Z,4.15
2022-10-18T08:11:50.291Z,3.38
2022-10-18T08:14:25.447Z,3.47
2022-10-18T08:16:55.464Z,3.58
2022-10-18T08:19:25.869Z,3.92
2022-10-18T08:21:55.084Z,4.82
2022-10-18T08:24:34.648Z,3.42
2022-10-18T08:27:04.354Z,3.17
2022-10-18T08:29:32.335Z,2.42
2022-10-18T08:32:04.392Z,2.90
2022-10-18T08:34:35.378Z,3.17
2022-10-18T08:37:04.762Z,2.45
2022-10-18T08:39:32.612Z,3.25
2022-10-18T08:42:42.724Z,6.40
2022-10-18T08:45:37.297Z,3.35
2022-10-18T08:48:02.418Z,4.10
2022-10-18T08:50:36.765Z,4.00
2022-10-18T08:56:00.422Z,2.58
2022-10-18T08:58:33.416Z,1.80
2022-10-18T09:01:20.677Z,4.55
2022-10-18T09:04:27.571Z,7.03
2022-10-18T09:07:17.279Z,4.25
2022-10-18T09:09:57.352Z,3.55
2022-10-18T09:12:42.673Z,4.75
2022-10-18T09:15:21.371Z,3.65
2022-10-18T09:18:15.117Z,3.72
2022-10-18T09:20:54.028Z,3.67
2022-10-18T09:23:51.638Z,3.08
2022-10-18T09:26:25.872Z,2.72
2022-10-18T09:29:11.776Z,3.17
2022-10-18T09:31:56.100Z,4.32
2022-10-18T09:34:31.840Z,4.00
2022-10-18T09:37:00.758Z,3.85
2022-10-18T09:39:33.200Z,3.60
2022-10-18T09:42:18.443Z,2.63
2022-10-18T09:44:52.227Z,3.95
2022-10-18T09:47:24.825Z,2.60
2022-10-18T09:49:58.999Z,2.45
2022-10-18T09:55:04.462Z,3.10
2022-10-18T09:57:39.538Z,5.03
2022-10-18T10:00:16.419Z,7.47
2022-10-18T10:02:44.497Z,4.10
2022-10-18T10:05:14.526Z,4.47
2022-10-18T10:07:44.723Z,3.58
2022-10-18T10:10:21.329Z,3.33
2022-10-18T10:13:07.730Z,3.20
2022-10-18T10:15:38.175Z,3.88
2022-10-18T10:18:21.879Z,4.47
2022-10-18T10:20:58.286Z,3.22
2022-10-18T10:23:30.579Z,3.50
2022-10-18T10:26:08.156Z,3.55
2022-10-18T10:28:43.622Z,2.75
2022-10-18T10:31:28.497Z,3.60
2022-10-18T10:34:01.474Z,3.38
2022-10-18T10:36:29.844Z,2.70
2022-10-18T10:39:06.627Z,2.65
2022-10-18T10:41:35.405Z,4.97
2022-10-18T10:44:14.943Z,4.18
2022-10-18T10:46:43.628Z,4.78
2022-10-18T10:49:40.066Z,2.78
2022-10-18T10:52:25.927Z,3.30
2022-10-18T10:55:05.812Z,2.15
2022-10-18T10:57:49.729Z,1.85
2022-10-18T11:00:39.425Z,3.28
2022-10-18T11:03:27.863Z,3.78
2022-10-18T11:05:58.094Z,2.65
2022-10-18T11:08:29.518Z,3.67
2022-10-18T11:11:16.950Z,3.38
2022-10-18T11:13:56.935Z,2.47
2022-10-18T11:16:40.531Z,2.13
2022-10-18T11:19:26.372Z,1.63
2022-10-18T11:21:58.248Z,3.13
2022-10-18T11:24:29.139Z,2.30
2022-10-18T11:27:11.338Z,2.15
2022-10-18T11:30:09.475Z,2.72
2022-10-18T11:32:45.361Z,3.70
2022-10-18T11:35:28.709Z,2.78
2022-10-18T11:38:07.542Z,2.05
2022-10-18T11:40:53.681Z,1.92
2022-10-18T11:43:30.311Z,3.10
2022-10-18T11:46:14.735Z,1.83
2022-10-18T11:48:58.787Z,1.55
2022-10-18T11:51:55.909Z,2.20
2022-10-18T11:54:43.675Z,1.90
2022-10-18T12:00:03.455Z,2.55
2022-10-18T12:03:11.182Z,2.38
2022-10-18T12:05:55.339Z,1.60
2022-10-18T12:08:29.240Z,1.85
2022-10-18T12:11:07.072Z,2.83
2022-10-18T12:13:42.394Z,2.40
2022-10-18T12:16:11.984Z,1.85
2022-10-18T12:18:54.822Z,1.50
2022-10-18T12:21:29.425Z,2.40
2022-10-18T12:24:04.035Z,1.60
2022-10-18T12:26:37.052Z,1.30
2022-10-18T12:29:19.281Z,1.33
2022-10-18T12:31:51.217Z,1.17
2022-10-18T12:34:43.949Z,0.98
2022-10-18T12:37:54.987Z,1.02
2022-10-18T12:40:26.557Z,1.40
2022-10-18T12:42:54.754Z,1.13
2022-10-18T12:45:30.253Z,1.40
2022-10-18T12:48:02.076Z,1.23
2022-10-18T12:50:36.198Z,1.00
2022-10-18T12:53:20.251Z,1.20
2022-10-18T12:55:51.521Z,1.10
2022-10-18T12:58:26.424Z,1.25
2022-10-18T13:01:01.111Z,1.67
2022-10-18T13:04:02.226Z,1.38
2022-10-18T13:07:07.923Z,1.00
2022-10-18T13:09:42.071Z,1.05
2022-10-18T13:15:24.687Z,1.58
2022-10-18T13:18:02.525Z,1.17
2022-10-18T13:20:39.915Z,1.15
2022-10-18T13:23:24.345Z,0.82
2022-10-18T13:28:31.917Z,1.00
2022-10-18T13:33:38.843Z,1.40
2022-10-18T13:36:25.979Z,1.17
2022-10-18T13:39:07.251Z,0.80
2022-10-18T13:42:08.833Z,0.80
2022-10-18T13:44:40.002Z,0.85
2022-10-18T13:47:13.676Z,1.55
2022-10-18T13:50:04.011Z,1.15
2022-10-18T13:52:50.231Z,1.38
2022-10-18T13:55:49.813Z,1.05
2022-10-18T13:58:27.581Z,0.82
2022-10-18T14:01:14.266Z,0.80
2022-10-18T14:04:27.277Z,0.98
2022-10-18T14:07:02.350Z,1.00
2022-10-18T14:09:44.184Z,0.80
2022-10-18T14:12:27.672Z,0.82
2022-10-18T14:15:00.846Z,0.93
2022-10-18T14:17:42.786Z,0.43
2022-10-18T14:20:40.100Z,1.30
2022-10-18T14:23:19.987Z,0.65
2022-10-18T14:25:48.981Z,1.02
2022-10-18T14:28:36.310Z,1.20
2022-10-18T14:31:15.108Z,0.80
2022-10-18T14:33:47.110Z,0.70
2022-10-18T14:36:17.325Z,1.40
2022-10-18T14:38:51.834Z,0.63
2022-10-18T14:41:24.809Z,0.80
2022-10-18T14:43:56.049Z,0.68
2022-10-18T14:46:28.980Z,0.35
2022-10-18T14:49:15.965Z,0.70
2022-10-18T14:51:46.492Z,0.40
2022-10-18T14:54:19.543Z,0.75
2022-10-18T14:56:56.352Z,0.90
2022-10-18T14:59:30.591Z,0.45
2022-10-18T15:02:02.038Z,1.00
2022-10-18T15:04:36.557Z,0.57
2022-10-18T15:07:07.608Z,0.60
2022-10-18T15:09:36.986Z,0.75
2022-10-18T15:12:09.705Z,0.70
2022-10-18T15:14:40.920Z,1.00
2022-10-18T15:17:15.868Z,0.73
2022-10-18T15:20:01.791Z,0.60
2022-10-18T15:22:34.018Z,0.60
2022-10-18T15:25:23.750Z,1.23
2022-10-18T15:27:57.123Z,0.80
2022-10-18T15:30:28.125Z,1.02
2022-10-18T15:33:00.106Z,0.52
2022-10-18T15:35:33.491Z,0.60
2022-10-18T15:38:15.994Z,1.20
2022-10-18T15:40:45.112Z,0.52
2022-10-18T15:43:35.810Z,0.60
2022-10-18T15:46:07.501Z,1.40
2022-10-18T15:48:38.229Z,1.05
2022-10-18T15:51:09.858Z,0.77
2022-10-18T15:53:46.195Z,0.82
2022-10-18T15:56:32.190Z,1.45
2022-10-18T15:59:05.272Z,1.10
2022-10-18T16:01:46.140Z,1.00
2022-10-18T16:04:19.481Z,0.75
2022-10-18T16:07:11.028Z,0.77
2022-10-18T16:09:39.212Z,1.02
2022-10-18T16:12:07.020Z,0.82
2022-10-18T16:14:35.244Z,1.05
2022-10-18T16:17:09.182Z,0.47
2022-10-18T16:24:44.755Z,0.40
2022-10-18T16:27:12.851Z,0.45
2022-10-18T16:29:41.542Z,0.75
2022-10-18T16:32:09.548Z,0.68
2022-10-18T16:34:37.436Z,0.82
2022-10-18T16:37:08.598Z,0.60
2022-10-18T16:39:36.687Z,0.65
2022-10-18T16:42:04.709Z,0.70
2022-10-18T16:44:32.751Z,0.68
2022-10-18T16:47:08.023Z,0.70
2022-10-18T16:49:36.187Z,1.05
2022-10-18T16:52:04.070Z,0.90
2022-10-18T16:54:36.479Z,0.88
2022-10-18T16:57:20.735Z,0.60
2022-10-18T16:59:48.609Z,0.73
2022-10-18T17:02:19.504Z,0.75
2022-10-18T17:04:47.355Z,1.20
2022-10-18T17:07:23.961Z,1.13
2022-10-18T17:09:55.760Z,1.20
2022-10-18T17:12:26.452Z,0.90
2022-10-18T17:14:54.873Z,0.63
2022-10-18T17:17:22.934Z,0.95
2022-10-18T17:19:50.967Z,0.70
2022-10-18T17:22:18.766Z,0.70
2022-10-18T17:24:46.685Z,1.10
2022-10-18T17:27:16.014Z,0.80
2022-10-18T17:29:44.126Z,0.70
2022-10-18T17:32:12.865Z,0.85
2022-10-18T17:34:47.907Z,0.65
2022-10-18T17:37:15.977Z,0.60
2022-10-18T17:39:43.843Z,0.47
2022-10-18T17:42:11.950Z,0.80
2022-10-18T17:44:43.194Z,0.70
2022-10-18T17:47:13.981Z,0.80
2022-10-18T17:49:43.783Z,0.60
2022-10-18T17:52:11.763Z,0.60
2022-10-18T17:54:39.768Z,0.80
2022-10-18T17:57:08.053Z,0.70
2022-10-18T17:59:35.866Z,0.52
2022-10-18T18:02:04.984Z,0.63
2022-10-18T18:04:33.005Z,0.57
2022-10-18T18:07:02.560Z,0.70
2022-10-18T18:09:30.682Z,0.65
2022-10-18T18:12:08.968Z,0.55
2022-10-18T18:14:37.789Z,0.30
2022-10-18T18:17:28.656Z,0.60
2022-10-18T18:20:06.873Z,0.55
2022-10-18T18:22:40.445Z,0.50
2022-10-18T18:25:11.108Z,0.52
2022-10-18T18:27:42.653Z,0.40
2022-10-18T18:30:15.283Z,0.40
2022-10-18T18:32:44.698Z,0.50
2022-10-18T18:35:12.792Z,0.50
2022-10-18T18:37:40.772Z,0.77
2022-10-18T18:40:09.763Z,0.50
2022-10-18T18:42:40.054Z,0.50
2022-10-18T18:45:11.144Z,0.70
2022-10-18T18:47:39.832Z,0.75
2022-10-18T18:50:14.380Z,0.90
2022-10-18T18:52:43.153Z,0.75
2022-10-18T18:55:12.773Z,0.60
2022-10-18T18:57:46.437Z,0.88
2022-10-18T19:00:15.801Z,0.90
2022-10-18T19:02:44.489Z,0.60
2022-10-18T19:07:54.862Z,0.52
2022-10-18T19:10:22.774Z,0.40
2022-10-18T19:12:50.803Z,0.40
2022-10-18T19:15:19.758Z,0.70
2022-10-18T19:17:47.645Z,1.17
2022-10-18T19:20:17.654Z,0.55
2022-10-18T19:22:47.337Z,0.63
2022-10-18T19:25:16.975Z,0.70
2022-10-18T19:27:56.593Z,0.50
2022-10-18T19:30:24.642Z,0.70
2022-10-18T19:33:07.698Z,0.68
2022-10-18T19:35:52.042Z,0.50
2022-10-18T19:38:24.196Z,0.50
2022-10-18T19:40:54.308Z,0.40
2022-10-18T19:43:22.232Z,0.70
2022-10-18T19:45:51.418Z,0.55
2022-10-18T19:48:25.543Z,0.50
2022-10-18T19:51:09.423Z,0.52
2022-10-18T19:53:39.452Z,0.65
2022-10-18T19:56:10.457Z,0.52
2022-10-18T19:58:59.991Z,0.95
2022-10-18T20:01:30.229Z,0.50
2022-10-18T20:03:58.861Z,0.50
2022-10-18T20:09:14.781Z,0.50
2022-10-18T20:11:54.980Z,0.40
2022-10-18T20:14:22.995Z,0.52
2022-10-18T20:16:50.895Z,0.70
2022-10-18T20:19:21.973Z,0.50
2022-10-18T20:21:58.826Z,0.80
2022-10-18T20:24:30.312Z,0.60
2022-10-18T20:27:00.687Z,0.70
2022-10-18T20:29:30.058Z,0.60
2022-10-18T20:31:57.875Z,0.50
2022-10-18T20:34:28.343Z,0.73
2022-10-18T20:36:57.008Z,0.90
2022-10-18T20:39:28.368Z,0.60
2022-10-18T20:42:05.080Z,0.50
2022-10-18T20:44:37.831Z,0.43
2022-10-18T20:47:06.007Z,0.60
2022-10-18T20:49:33.891Z,0.60
2022-10-18T20:52:04.850Z,0.38
2022-10-18T20:54:32.575Z,0.57
2022-10-18T20:57:04.001Z,0.50
2022-10-18T20:59:33.909Z,0.50
2022-10-18T21:02:01.777Z,0.47
2022-10-18T21:04:32.605Z,0.52
2022-10-18T21:07:01.077Z,0.52
2022-10-18T21:09:35.027Z,0.40
2022-10-18T21:12:06.852Z,0.45
2022-10-18T21:14:34.737Z,0.52
2022-10-18T21:17:05.384Z,0.70
2022-10-18T21:19:33.491Z,0.93
2022-10-18T21:22:04.465Z,0.77
2022-10-18T21:24:46.808Z,0.40
2022-10-18T21:27:16.229Z,0.60
2022-10-18T21:29:44.035Z,0.88
2022-10-18T21:32:11.935Z,0.57
2022-10-18T21:34:48.826Z,0.40
2022-10-18T21:37:16.754Z,0.60
2022-10-18T21:39:44.528Z,0.40
2022-10-18T21:42:13.548Z,0.40
2022-10-18T21:44:42.792Z,0.70
2022-10-18T21:47:12.753Z,0.63
2022-10-18T21:49:40.634Z,1.65
2022-10-18T21:52:08.374Z,1.00
2022-10-18T21:54:36.152Z,0.60
2022-10-18T21:57:06.788Z,0.80
2022-10-18T21:59:54.999Z,0.80
2022-10-18T22:02:22.756Z,0.60
2022-10-18T22:04:53.666Z,0.50
2022-10-18T22:07:21.516Z,0.40
2022-10-18T22:09:49.318Z,0.70
2022-10-18T22:12:24.655Z,0.80
2022-10-18T22:15:04.824Z,0.90
2022-10-18T22:17:32.879Z,0.82
2022-10-18T22:20:01.124Z,0.50
2022-10-18T22:22:36.071Z,0.80
2022-10-18T22:25:03.991Z,0.70
2022-10-18T22:27:32.670Z,0.40
2022-10-18T22:30:01.979Z,0.50
2022-10-18T22:32:29.731Z,0.93
2022-10-18T22:35:00.649Z,0.45
2022-10-18T22:37:28.474Z,0.88
2022-10-18T22:39:59.558Z,0.40
2022-10-18T22:42:27.390Z,0.70
2022-10-18T22:44:57.615Z,0.30
2022-10-18T22:47:26.734Z,0.45
2022-10-18T22:49:54.601Z,0.52
2022-10-18T22:52:22.362Z,0.40
2022-10-18T22:54:53.154Z,0.40
2022-10-18T22:57:28.171Z,0.65
2022-10-18T22:59:56.501Z,0.80
2022-10-18T23:02:24.295Z,0.20
2022-10-18T23:04:53.415Z,0.32
2022-10-18T23:07:21.225Z,0.40
2022-10-18T23:09:48.973Z,0.30
2022-10-18T23:12:16.756Z,0.30
2022-10-18T23:14:51.840Z,0.85
2022-10-18T23:17:19.674Z,0.30
2022-10-18T23:19:47.983Z,0.30
2022-10-18T23:22:21.170Z,0.35
2022-10-18T23:24:48.964Z,0.40
2022-10-18T23:27:16.934Z,0.22
2022-10-18T23:29:47.751Z,0.40
2022-10-18T23:32:15.460Z,0.32
2022-10-18T23:34:49.329Z,0.32
2022-10-18T23:37:20.801Z,0.32
2022-10-18T23:39:48.616Z,0.30
2022-10-18T23:42:16.578Z,0.40
2022-10-18T23:44:47.986Z,0.10
2022-10-18T23:47:18.917Z,0.55
2022-10-18T23:49:46.781Z,0.47
2022-10-18T23:52:24.747Z,0.45
2022-10-18T23:54:52.523Z,0.40
2022-10-18T23:57:20.351Z,0.65
2022-10-18T23:59:54.377Z,0.30
